»·PEaware :: N232Z KSBA-KPSP

N232Z :: KSBA-KPSP

FLIGHT INFORMATION

Flight Status: Arrived
Operator: Privately registered:
United States
More flights under this callsign
Pilot: Merv A. (1555)
Aircraft: Unknown
(LEG2)
More flights by this aircraft type
Origin: KSBA Santa Barbara Mun
United States
Destination: KPSP Palm Springs Intl
United States
More flights between these airports :: More routes between these airports
Route: +FIM V186 ITSME V264 POM V197 PDZ V186 NIKKL V64 TRM PSP
File this flight plan on PilotEdge
Remarks: TEC Route SBAN36
Altitude:
(Current/Filed)
11,000ft
Speed:
(Current/Filed)
200kts
Departed: 23-Sep-17 03:36 PM
Arrived: 23-Sep-17 04:57 PM
Distance/Time
Traveled:
170nm/1:21
Distance/Time
To Go:
Arrived

Flight Plot

Page will automatically refresh every two minutes.


Map Options




Map Legend


Flown Route
Filed Route
Departure Airport
Arrival Airport
Navaid (VOR, NDB)
Fix

Horizontal Profiles

Position Reports

Time Latitude Longitude Heading Altitude Ground
Speed
23-Sep-17 15:19 34.432586 -119.835078 69 13ft 0kts
23-Sep-17 15:20 34.432586 -119.835078 69 13ft 0kts
23-Sep-17 15:21 34.432586 -119.835078 69 13ft 0kts
23-Sep-17 15:22 34.432586 -119.835078 69 13ft 0kts
23-Sep-17 15:23 34.432586 -119.835078 69 13ft 0kts
23-Sep-17 15:24 34.432586 -119.835078 69 13ft 0kts
23-Sep-17 15:25 34.432586 -119.835078 69 13ft 0kts
23-Sep-17 15:26 34.432586 -119.835078 69 13ft 0kts
23-Sep-17 15:27 34.432586 -119.835078 69 13ft 0kts
23-Sep-17 15:28 34.432586 -119.835078 69 13ft 0kts
23-Sep-17 15:29 34.432587 -119.835075 69 13ft 0kts
23-Sep-17 15:30 34.432587 -119.835075 69 13ft 0kts
23-Sep-17 15:31 34.432587 -119.835074 69 13ft 0kts
23-Sep-17 15:32 34.432587 -119.835074 69 13ft 0kts
23-Sep-17 15:33 34.432587 -119.835074 69 13ft 0kts
23-Sep-17 15:34 34.432469 -119.834900 159 13ft 7kts
23-Sep-17 15:35 34.430727 -119.835336 178 13ft 11kts
23-Sep-17 15:36 34.428661 -119.834497 178 13ft 0kts
23-Sep-17 15:37 34.428656 -119.834496 177 13ft 0kts
23-Sep-17 15:38 34.428655 -119.834496 177 13ft 0kts
23-Sep-17 15:39 34.427914 -119.835386 268 13ft 15kts
23-Sep-17 15:40 34.427664 -119.867786 268 710ft 152kts
23-Sep-17 15:43 34.429108 -119.898385 269 1524ft 172kts
23-Sep-17 15:44 34.430773 -119.956443 270 2847ft 165kts
23-Sep-17 15:45 34.426954 -120.016575 232 3232ft 189kts
23-Sep-17 15:46 34.393921 -119.995999 105 4725ft 157kts
23-Sep-17 15:47 34.385208 -119.946473 93 5994ft 148kts
23-Sep-17 15:48 34.382736 -119.894662 86 6941ft 170kts
23-Sep-17 15:49 34.383097 -119.831483 87 7003ft 200kts
23-Sep-17 15:50 34.382259 -119.764796 88 7000ft 196kts
23-Sep-17 15:51 34.380401 -119.699248 89 7002ft 194kts
23-Sep-17 15:52 34.378439 -119.633699 89 7007ft 195kts
23-Sep-17 15:53 34.376545 -119.567570 89 7011ft 197kts
23-Sep-17 15:54 34.374674 -119.500833 89 7016ft 198kts
23-Sep-17 15:55 34.373012 -119.445232 89 7020ft 200kts
23-Sep-17 15:56 34.371036 -119.377335 89 6997ft 202kts
23-Sep-17 15:57 34.369059 -119.309300 89 6996ft 202kts
23-Sep-17 15:58 34.366773 -119.230201 89 6997ft 201kts
23-Sep-17 15:59 34.364811 -119.162271 89 6991ft 201kts
23-Sep-17 16:00 34.363179 -119.105674 89 6990ft 201kts
23-Sep-17 16:01 34.361241 -119.038346 89 6988ft 201kts
23-Sep-17 16:02 34.359280 -118.970652 90 6989ft 200kts
23-Sep-17 16:03 34.356932 -118.891873 91 6992ft 200kts
23-Sep-17 16:04 34.338572 -118.827930 110 6993ft 202kts
23-Sep-17 16:05 34.320165 -118.775802 110 6990ft 202kts
23-Sep-17 16:06 34.299406 -118.712703 109 6985ft 202kts
23-Sep-17 16:07 34.279088 -118.649354 110 6979ft 202kts
23-Sep-17 16:08 34.258147 -118.586541 110 6970ft 201kts
23-Sep-17 16:09 34.237080 -118.523714 110 6970ft 201kts
23-Sep-17 16:10 34.213548 -118.462554 113 6962ft 202kts
23-Sep-17 16:11 34.191097 -118.401078 109 6980ft 203kts
23-Sep-17 16:12 34.171792 -118.337066 107 6972ft 204kts
23-Sep-17 16:13 34.152790 -118.272758 108 7009ft 203kts
23-Sep-17 16:14 34.132623 -118.208790 106 7012ft 203kts
23-Sep-17 16:15 34.115273 -118.143767 107 7014ft 204kts
23-Sep-17 16:16 34.096581 -118.079727 107 7017ft 204kts
23-Sep-17 16:17 34.078023 -118.015105 107 7018ft 204kts
23-Sep-17 16:18 34.075434 -117.947414 86 7019ft 202kts
23-Sep-17 16:19 34.076510 -117.879864 87 7025ft 202kts
23-Sep-17 16:20 34.078382 -117.811962 86 7034ft 202kts
23-Sep-17 16:21 34.058553 -117.750913 130 7037ft 205kts
23-Sep-17 16:22 34.023176 -117.696806 125 7017ft 206kts
23-Sep-17 16:23 33.988578 -117.641796 125 7009ft 206kts
23-Sep-17 16:24 33.953942 -117.586499 125 7006ft 206kts
23-Sep-17 16:25 33.918668 -117.532007 133 6999ft 207kts
23-Sep-17 16:26 33.872227 -117.490812 144 7000ft 208kts
23-Sep-17 16:27 33.824687 -117.451011 143 7000ft 208kts
23-Sep-17 16:28 33.777007 -117.411044 143 7005ft 208kts
23-Sep-17 16:29 33.737506 -117.362940 115 7011ft 205kts
23-Sep-17 16:30 33.724831 -117.297366 91 7007ft 203kts
23-Sep-17 16:31 33.721109 -117.229319 91 7008ft 204kts
23-Sep-17 16:32 33.715861 -117.161548 93 7019ft 204kts
23-Sep-17 16:33 33.709766 -117.093240 93 8010ft 198kts
23-Sep-17 16:34 33.703864 -117.027902 92 8933ft 204kts
23-Sep-17 16:35 33.697901 -116.958413 92 8967ft 208kts
23-Sep-17 16:36 33.691944 -116.889923 92 8944ft 205kts
23-Sep-17 16:37 33.685961 -116.822217 92 8930ft 201kts
23-Sep-17 16:38 33.680190 -116.755248 91 8921ft 203kts
23-Sep-17 16:39 33.674241 -116.687773 91 8913ft 202kts
23-Sep-17 16:40 33.668416 -116.620825 91 8916ft 204kts
23-Sep-17 16:41 33.662465 -116.552690 91 8910ft 205kts
23-Sep-17 16:42 33.656447 -116.484369 91 8902ft 206kts
23-Sep-17 16:43 33.650471 -116.415445 91 8702ft 212kts
23-Sep-17 16:44 33.644335 -116.346032 91 8043ft 205kts
23-Sep-17 16:45 33.638490 -116.277993 91 7377ft 204kts
23-Sep-17 16:46 33.632731 -116.209836 91 6678ft 206kts
23-Sep-17 16:47 33.626486 -116.141951 93 6178ft 204kts
23-Sep-17 16:48 33.616450 -116.074762 106 5733ft 208kts
23-Sep-17 16:49 33.576150 -116.081228 276 5502ft 183kts
23-Sep-17 16:50 33.606471 -116.124061 307 5216ft 176kts
23-Sep-17 16:51 33.634779 -116.173291 305 4818ft 181kts
23-Sep-17 16:52 33.663525 -116.221332 309 4202ft 168kts
23-Sep-17 16:53 33.689184 -116.265327 307 3585ft 154kts
23-Sep-17 16:54 33.714537 -116.308619 307 3090ft 162kts
23-Sep-17 16:55 33.740263 -116.352695 307 3001ft 154kts
23-Sep-17 16:56 33.763149 -116.391965 308 3016ft 138kts
23-Sep-17 16:57 33.783431 -116.426285 306 2383ft 102kts
23-Sep-17 16:58 33.796390 -116.454750 286 1667ft 95kts
23-Sep-17 16:59 33.806893 -116.482931 309 1082ft 95kts
23-Sep-17 17:00 33.825730 -116.501243 315 480ft 60kts
23-Sep-17 17:01 33.830004 -116.504470 54 480ft 0kts
23-Sep-17 17:02 33.829147 -116.503342 142 480ft 16kts
23-Sep-17 17:03 33.824909 -116.499498 121 480ft 16kts
23-Sep-17 17:04 33.822685 -116.497389 139 480ft 13kts
23-Sep-17 17:05 33.822657 -116.496903 50 480ft 0kts
23-Sep-17 17:06 33.822646 -116.496921 53 480ft 0kts

Navigation Log

Ident Type
1. KSBA Airport
2. FIM Navaid
3. SESPE Fix
4. VNY Navaid
5. DARTS Fix
6. PURMS Fix
7. ELMOO Fix
8. ITSME Fix
9. HOPUN Fix
10. COVIN Fix
11. POM Navaid
12. PDZ Navaid
13. NIKKL Fix
14. PERIS Fix
15. HEMET Fix
16. HAPPE Fix
17. BALDI Fix
18. CORLA Fix
19. TRM Navaid
20. PSP Navaid
21. KPSP Airport